createdAt,value
2017-04-13T00:02:03.623Z,40.3
2017-04-13T00:07:03.110Z,41.4
2017-04-13T00:12:03.896Z,41.1
2017-04-13T00:17:03.428Z,41.2
2017-04-13T00:22:03.751Z,41.1
2017-04-13T00:27:03.077Z,41.1
2017-04-13T00:32:03.887Z,40.9
2017-04-13T00:37:03.360Z,40.9
2017-04-13T00:42:03.776Z,40.9
2017-04-13T00:47:03.594Z,40.8
2017-04-13T00:52:03.213Z,41.0
2017-04-13T00:57:03.716Z,40.9
2017-04-13T01:02:03.250Z,40.9
2017-04-13T01:07:03.603Z,41.0
2017-04-13T01:12:03.226Z,40.9
2017-04-13T01:17:04.006Z,40.9
2017-04-13T01:22:03.327Z,40.8
2017-04-13T01:27:03.806Z,40.8
2017-04-13T01:32:03.621Z,40.8
2017-04-13T01:37:03.196Z,40.8
2017-04-13T01:42:03.498Z,40.8
2017-04-13T01:47:03.787Z,40.7
2017-04-13T01:52:03.708Z,40.7
2017-04-13T01:57:03.148Z,40.7
2017-04-13T02:02:03.577Z,40.7
2017-04-13T02:07:03.948Z,40.7
2017-04-13T02:12:03.731Z,40.8
2017-04-13T02:17:03.201Z,40.8
2017-04-13T02:22:03.580Z,40.8
2017-04-13T02:27:03.341Z,40.8
2017-04-13T02:32:03.328Z,40.6
2017-04-13T02:37:03.579Z,40.6
2017-04-13T02:42:04.025Z,40.7
2017-04-13T02:47:03.184Z,40.7
2017-04-13T02:52:03.523Z,41.0
2017-04-13T02:57:03.622Z,41.4
2017-04-13T03:02:03.911Z,41.0
2017-04-13T03:07:03.421Z,40.9
2017-04-13T03:12:03.709Z,41.1
2017-04-13T03:17:04.026Z,41.1
2017-04-13T03:22:03.510Z,41.1
2017-04-13T03:27:03.662Z,41.1
2017-04-13T03:32:03.151Z,41.0
2017-04-13T03:37:03.358Z,41.1
2017-04-13T03:42:03.589Z,41.4
2017-04-13T03:47:03.862Z,41.4
2017-04-13T03:52:03.340Z,41.3
2017-04-13T03:57:03.640Z,41.4
2017-04-13T04:02:03.185Z,41.3
2017-04-13T04:07:03.917Z,41.3
2017-04-13T04:12:03.759Z,41.3
2017-04-13T04:17:19.668Z,41.6
2017-04-13T04:22:03.512Z,41.6
2017-04-13T04:27:03.984Z,41.9
2017-04-13T04:32:25.727Z,41.7
2017-04-13T04:37:03.781Z,41.7
2017-04-13T04:42:03.506Z,41.7
2017-04-13T04:47:23.847Z,41.8
2017-04-13T04:52:03.437Z,41.8
2017-04-13T04:57:03.525Z,41.7
2017-04-13T05:02:24.162Z,42.5
2017-04-13T05:07:03.805Z,42.1
2017-04-13T05:12:03.852Z,42.1
2017-04-13T05:17:29.206Z,42.0
2017-04-13T05:22:03.098Z,41.8
2017-04-13T05:27:03.142Z,42.0
2017-04-13T05:37:03.624Z,42.1
2017-04-13T05:42:03.139Z,42.2
2017-04-13T05:47:23.381Z,42.2
2017-04-13T05:52:03.487Z,42.3
2017-04-13T05:57:03.213Z,42.3
2017-04-13T06:02:19.605Z,42.3
2017-04-13T06:07:03.518Z,42.3
2017-04-13T06:12:03.707Z,42.5
2017-04-13T06:17:31.829Z,42.0
2017-04-13T06:22:03.427Z,42.3
2017-04-13T06:27:03.925Z,41.6
2017-04-13T06:32:27.000Z,41.6
2017-04-13T06:37:03.060Z,41.5
2017-04-13T06:42:03.379Z,41.3
2017-04-13T06:47:24.262Z,40.8
2017-04-13T06:52:03.501Z,40.8
2017-04-13T06:57:03.893Z,40.9
2017-04-13T07:02:28.377Z,40.8
2017-04-13T07:07:03.960Z,40.7
2017-04-13T07:12:03.771Z,41.1
2017-04-13T07:17:28.969Z,41.4
2017-04-13T07:22:03.549Z,41.6
2017-04-13T07:27:03.280Z,41.6
2017-04-13T07:32:24.107Z,41.2
2017-04-13T07:37:03.960Z,41.2
2017-04-13T07:42:03.822Z,41.1
2017-04-13T07:47:28.850Z,41.1
2017-04-13T07:52:03.036Z,41.0
2017-04-13T07:57:03.300Z,40.8
2017-04-13T08:02:28.854Z,40.8
2017-04-13T08:07:03.220Z,40.7
2017-04-13T08:12:03.700Z,41.2
2017-04-13T08:17:24.322Z,41.0
2017-04-13T08:22:03.238Z,41.2
2017-04-13T08:27:03.726Z,41.2
2017-04-13T08:32:28.056Z,41.2
2017-04-13T08:37:03.144Z,41.2
2017-04-13T08:42:03.299Z,41.3
2017-04-13T08:47:28.652Z,40.9
2017-04-13T08:52:03.381Z,41.2
2017-04-13T08:57:03.780Z,40.8
2017-04-13T09:02:26.992Z,40.4
2017-04-13T09:07:02.992Z,40.3
2017-04-13T09:12:03.311Z,40.1
2017-04-13T09:17:24.520Z,40.0
2017-04-13T09:22:03.559Z,40.0
2017-04-13T09:27:03.588Z,40.5
2017-04-13T09:32:24.470Z,40.9
2017-04-13T09:37:03.126Z,41.1
2017-04-13T09:42:03.173Z,41.2
2017-04-13T09:47:23.985Z,41.2
2017-04-13T09:52:03.707Z,41.2
2017-04-13T09:57:03.462Z,40.8
2017-04-13T10:02:28.553Z,40.7
2017-04-13T10:07:03.592Z,40.7
2017-04-13T10:12:03.273Z,40.3
2017-04-13T10:17:24.794Z,41.0
2017-04-13T10:22:03.529Z,41.0
2017-04-13T10:27:03.705Z,41.2
2017-04-13T10:32:23.838Z,41.1
2017-04-13T10:37:03.418Z,41.1
2017-04-13T10:42:03.850Z,41.4
2017-04-13T10:47:23.856Z,41.4
2017-04-13T10:52:03.039Z,41.5
2017-04-13T10:57:03.708Z,41.5
2017-04-13T11:02:18.695Z,41.3
2017-04-13T11:07:03.602Z,41.2
2017-04-13T11:12:03.656Z,40.9
2017-04-13T11:17:24.415Z,40.8
2017-04-13T11:22:03.278Z,40.9
2017-04-13T11:27:03.297Z,41.0
2017-04-13T11:32:25.168Z,41.2
2017-04-13T11:37:03.650Z,41.4
2017-04-13T11:42:03.646Z,41.7
2017-04-13T11:47:24.110Z,41.7
2017-04-13T11:52:03.360Z,41.6
2017-04-13T11:57:03.330Z,41.8
2017-04-13T12:02:23.488Z,41.8
2017-04-13T12:07:03.362Z,41.3
2017-04-13T12:12:03.631Z,41.1
2017-04-13T12:17:25.032Z,41.1
2017-04-13T12:22:03.494Z,40.7
2017-04-13T12:27:03.752Z,40.8
2017-04-13T12:32:22.524Z,41.0
2017-04-13T12:37:03.420Z,41.3
2017-04-13T12:42:03.628Z,41.7
2017-04-13T12:47:28.541Z,41.6
2017-04-13T12:52:03.432Z,41.5
2017-04-13T12:57:03.393Z,41.2
2017-04-13T13:02:23.512Z,41.4
2017-04-13T13:07:03.817Z,41.3
2017-04-13T13:12:03.157Z,41.4
2017-04-13T13:17:27.000Z,41.2
2017-04-13T13:22:03.649Z,41.2
2017-04-13T13:27:03.125Z,41.1
2017-04-13T13:32:27.826Z,41.2
2017-04-13T13:37:03.603Z,41.2
2017-04-13T13:42:03.130Z,40.7
2017-04-13T13:47:28.403Z,40.8
2017-04-13T13:52:03.110Z,40.9
2017-04-13T13:57:03.418Z,40.9
2017-04-13T14:02:21.752Z,41.1
2017-04-13T14:07:03.530Z,41.0
2017-04-13T14:12:03.290Z,40.3
2017-04-13T14:17:24.277Z,40.5
2017-04-13T14:22:03.895Z,40.5
2017-04-13T14:27:03.436Z,39.1
2017-04-13T14:32:27.935Z,37.7
2017-04-13T14:37:04.242Z,37.7
2017-04-13T14:42:03.583Z,36.6
2017-04-13T14:47:28.635Z,36.5
2017-04-13T14:52:03.489Z,37.5
2017-04-13T14:57:03.600Z,37.4
2017-04-13T15:02:23.641Z,34.4
2017-04-13T15:07:03.176Z,34.3
2017-04-13T15:12:03.147Z,33.9
2017-04-13T15:17:31.094Z,35.3
2017-04-13T15:22:03.175Z,31.8
2017-04-13T15:27:03.548Z,31.8
2017-04-13T15:32:28.534Z,31.1
2017-04-13T15:37:03.221Z,31.7
2017-04-13T15:42:03.630Z,29.5
2017-04-13T15:47:23.916Z,29.5
2017-04-13T15:52:03.331Z,29.1
2017-04-13T15:57:03.890Z,29.5
2017-04-13T16:02:24.192Z,28.9
2017-04-13T16:07:03.481Z,28.8
2017-04-13T16:12:03.909Z,29.7
2017-04-13T16:17:23.971Z,29.7
2017-04-13T16:22:03.788Z,30.0
2017-04-13T16:27:03.657Z,29.2
2017-04-13T16:32:22.713Z,28.9
2017-04-13T16:37:03.470Z,29.9
2017-04-13T16:42:03.210Z,29.8
2017-04-13T16:47:24.344Z,29.3
2017-04-13T16:52:03.249Z,30.1
2017-04-13T16:57:03.679Z,30.1
2017-04-13T17:02:21.771Z,30.9
2017-04-13T17:07:03.935Z,30.7
2017-04-13T17:12:03.411Z,30.5
2017-04-13T17:17:24.181Z,31.0
2017-04-13T17:22:03.130Z,34.6
2017-04-13T17:27:03.150Z,37.4
2017-04-13T17:32:27.832Z,39.5
2017-04-13T17:37:03.753Z,39.4
2017-04-13T17:42:03.622Z,39.6
2017-04-13T17:47:28.289Z,39.6
2017-04-13T17:52:03.699Z,39.7
2017-04-13T17:57:03.267Z,39.8
2017-04-13T18:02:23.648Z,39.9
2017-04-13T18:07:03.394Z,39.8
2017-04-13T18:12:03.113Z,39.8
2017-04-13T18:17:28.954Z,39.9
2017-04-13T18:22:03.622Z,40.0
2017-04-13T18:27:03.832Z,39.9
2017-04-13T18:32:27.581Z,40.3
2017-04-13T18:37:03.765Z,40.3
2017-04-13T18:42:03.648Z,40.4
2017-04-13T18:47:15.795Z,40.3
2017-04-13T18:52:03.449Z,40.3
2017-04-13T18:57:03.686Z,40.4
2017-04-13T19:02:05.989Z,40.4
2017-04-13T19:07:03.179Z,40.4
2017-04-13T19:12:03.249Z,40.4
2017-04-13T19:17:03.511Z,40.4
2017-04-13T19:22:03.249Z,40.4
2017-04-13T19:27:03.361Z,40.4
2017-04-13T19:32:03.769Z,40.3
2017-04-13T19:37:03.285Z,40.3
2017-04-13T19:42:03.580Z,40.7
2017-04-13T19:47:03.605Z,40.6
2017-04-13T19:52:03.650Z,40.7
2017-04-13T19:57:03.401Z,40.6
2017-04-13T20:02:03.803Z,40.6
2017-04-13T20:07:03.682Z,40.8
2017-04-13T20:12:03.459Z,40.8
2017-04-13T20:17:03.985Z,40.7
2017-04-13T20:22:03.887Z,40.6
2017-04-13T20:27:03.536Z,40.6
2017-04-13T20:32:03.565Z,40.6
2017-04-13T20:37:03.880Z,40.6
2017-04-13T20:42:03.612Z,40.6
2017-04-13T20:47:03.311Z,40.7
2017-04-13T20:52:03.622Z,40.8
2017-04-13T20:57:03.486Z,40.8
2017-04-13T21:02:03.980Z,41.0
2017-04-13T21:07:03.309Z,40.9
2017-04-13T21:12:03.528Z,41.0
2017-04-13T21:17:03.356Z,40.7
2017-04-13T21:22:03.110Z,40.8
2017-04-13T21:27:03.550Z,40.8
2017-04-13T21:32:03.407Z,40.8
2017-04-13T21:37:03.763Z,40.8
2017-04-13T21:42:03.586Z,40.8
2017-04-13T21:47:03.781Z,40.7
2017-04-13T21:52:03.442Z,40.5
2017-04-13T21:57:03.338Z,40.5
2017-04-13T22:02:03.497Z,40.5
2017-04-13T22:07:04.154Z,40.5
2017-04-13T22:12:03.518Z,40.4
2017-04-13T22:22:03.734Z,40.0
2017-04-13T22:27:03.065Z,40.4
2017-04-13T22:32:03.671Z,40.1
2017-04-13T22:37:03.901Z,40.0
2017-04-13T22:42:03.452Z,39.9
2017-04-13T22:47:03.138Z,39.9
2017-04-13T22:52:03.213Z,39.9
2017-04-13T22:57:03.185Z,40.0
2017-04-13T23:02:03.786Z,39.8
2017-04-13T23:07:03.332Z,39.8
2017-04-13T23:12:03.122Z,39.8
2017-04-13T23:17:03.270Z,39.9
2017-04-13T23:22:03.677Z,39.8
2017-04-13T23:27:03.633Z,39.9
2017-04-13T23:32:04.040Z,39.9
2017-04-13T23:37:03.859Z,39.7
2017-04-13T23:42:03.662Z,39.9
2017-04-13T23:47:03.532Z,39.8
2017-04-13T23:52:03.768Z,40.0
2017-04-13T23:57:03.347Z,40.0
